sensor_id;sensor_type;location;lat;lon;timestamp;pressure;altitude;pressure_sealevel;temperature;humidity
2681;BME280;1350;42.134;24.708;2022-09-03T00:00:00;99167.72;;;20.84;100.00
2681;BME280;1350;42.134;24.708;2022-09-03T00:02:34;99168.47;;;20.59;100.00
2681;BME280;1350;42.134;24.708;2022-09-03T00:05:07;99168.38;;;20.34;100.00
2681;BME280;1350;42.134;24.708;2022-09-03T00:07:43;99175.31;;;20.36;100.00
2681;BME280;1350;42.134;24.708;2022-09-03T00:10:16;99177.94;;;20.46;100.00
2681;BME280;1350;42.134;24.708;2022-09-03T00:12:46;99185.09;;;20.37;100.00
2681;BME280;1350;42.134;24.708;2022-09-03T00:15:17;99178.25;;;20.43;100.00
2681;BME280;1350;42.134;24.708;2022-09-03T00:17:48;99175.66;;;20.51;100.00
2681;BME280;1350;42.134;24.708;2022-09-03T00:20:20;99178.44;;;20.59;100.00
2681;BME280;1350;42.134;24.708;2022-09-03T00:22:50;99177.13;;;20.63;100.00
2681;BME280;1350;42.134;24.708;2022-09-03T00:25:23;99178.28;;;20.60;100.00
2681;BME280;1350;42.134;24.708;2022-09-03T00:27:54;99183.38;;;20.63;100.00
2681;BME280;1350;42.134;24.708;2022-09-03T00:30:22;99179.97;;;20.61;100.00
2681;BME280;1350;42.134;24.708;2022-09-03T00:32:56;99180.34;;;20.66;100.00
2681;BME280;1350;42.134;24.708;2022-09-03T00:35:28;99177.66;;;20.66;100.00
2681;BME280;1350;42.134;24.708;2022-09-03T00:37:58;99180.72;;;20.71;100.00
2681;BME280;1350;42.134;24.708;2022-09-03T00:40:48;99168.72;;;20.66;100.00
2681;BME280;1350;42.134;24.708;2022-09-03T00:43:29;99172.88;;;20.60;100.00
2681;BME280;1350;42.134;24.708;2022-09-03T00:46:04;99164.78;;;20.43;100.00
2681;BME280;1350;42.134;24.708;2022-09-03T00:48:40;99165.03;;;20.49;100.00
2681;BME280;1350;42.134;24.708;2022-09-03T00:51:17;99166.56;;;20.34;100.00
2681;BME280;1350;42.134;24.708;2022-09-03T00:54:01;99168.44;;;20.24;100.00
2681;BME280;1350;42.134;24.708;2022-09-03T00:56:34;99176.97;;;20.20;100.00
2681;BME280;1350;42.134;24.708;2022-09-03T00:59:24;99169.63;;;20.12;100.00
2681;BME280;1350;42.134;24.708;2022-09-03T01:02:02;99169.50;;;20.04;100.00
2681;BME280;1350;42.134;24.708;2022-09-03T01:04:44;99170.41;;;19.95;100.00
2681;BME280;1350;42.134;24.708;2022-09-03T01:07:19;99173.41;;;19.92;100.00
2681;BME280;1350;42.134;24.708;2022-09-03T01:10:01;99173.25;;;19.93;100.00
2681;BME280;1350;42.134;24.708;2022-09-03T01:12:38;99181.81;;;20.06;100.00
2681;BME280;1350;42.134;24.708;2022-09-03T01:15:11;99182.81;;;20.05;100.00
2681;BME280;1350;42.134;24.708;2022-09-03T01:17:50;99183.94;;;20.13;100.00
2681;BME280;1350;42.134;24.708;2022-09-03T01:20:28;99183.06;;;20.12;100.00
2681;BME280;1350;42.134;24.708;2022-09-03T01:23:37;99179.00;;;20.08;100.00
2681;BME280;1350;42.134;24.708;2022-09-03T01:26:27;99178.78;;;19.92;100.00
2681;BME280;1350;42.134;24.708;2022-09-03T01:29:02;99175.00;;;19.85;100.00
2681;BME280;1350;42.134;24.708;2022-09-03T01:31:38;99177.25;;;19.89;100.00
2681;BME280;1350;42.134;24.708;2022-09-03T01:34:15;99173.56;;;19.90;100.00
2681;BME280;1350;42.134;24.708;2022-09-03T01:36:51;99179.81;;;19.81;100.00
2681;BME280;1350;42.134;24.708;2022-09-03T01:39:28;99173.16;;;19.76;100.00
2681;BME280;1350;42.134;24.708;2022-09-03T01:42:01;99176.16;;;19.73;100.00
2681;BME280;1350;42.134;24.708;2022-09-03T01:44:51;99178.47;;;19.68;100.00
2681;BME280;1350;42.134;24.708;2022-09-03T01:47:29;99181.88;;;19.60;100.00
2681;BME280;1350;42.134;24.708;2022-09-03T01:50:03;99176.09;;;19.55;100.00
2681;BME280;1350;42.134;24.708;2022-09-03T01:52:40;99173.69;;;19.52;100.00
2681;BME280;1350;42.134;24.708;2022-09-03T01:55:20;99168.31;;;19.52;100.00
2681;BME280;1350;42.134;24.708;2022-09-03T01:57:53;99169.59;;;19.48;100.00
2681;BME280;1350;42.134;24.708;2022-09-03T02:00:23;99162.94;;;19.52;100.00
2681;BME280;1350;42.134;24.708;2022-09-03T02:02:52;99172.84;;;19.52;100.00
2681;BME280;1350;42.134;24.708;2022-09-03T02:05:20;99167.72;;;19.58;100.00
2681;BME280;1350;42.134;24.708;2022-09-03T02:07:53;99178.94;;;19.54;100.00
2681;BME280;1350;42.134;24.708;2022-09-03T02:10:22;99179.38;;;19.49;100.00
2681;BME280;1350;42.134;24.708;2022-09-03T02:12:54;99184.03;;;19.47;100.00
2681;BME280;1350;42.134;24.708;2022-09-03T02:15:24;99183.31;;;19.45;100.00
2681;BME280;1350;42.134;24.708;2022-09-03T02:17:55;99186.88;;;19.46;100.00
2681;BME280;1350;42.134;24.708;2022-09-03T02:20:26;99190.44;;;19.46;100.00
2681;BME280;1350;42.134;24.708;2022-09-03T02:22:55;99190.56;;;19.45;100.00
2681;BME280;1350;42.134;24.708;2022-09-03T02:25:29;99193.94;;;19.47;100.00
2681;BME280;1350;42.134;24.708;2022-09-03T02:27:58;99199.91;;;19.41;100.00
2681;BME280;1350;42.134;24.708;2022-09-03T02:30:27;99200.19;;;19.38;100.00
2681;BME280;1350;42.134;24.708;2022-09-03T02:32:54;99203.47;;;19.32;100.00
2681;BME280;1350;42.134;24.708;2022-09-03T02:35:21;99196.69;;;19.28;100.00
2681;BME280;1350;42.134;24.708;2022-09-03T02:37:48;99204.47;;;19.31;100.00
2681;BME280;1350;42.134;24.708;2022-09-03T02:40:15;99201.63;;;19.32;100.00
2681;BME280;1350;42.134;24.708;2022-09-03T02:42:42;99205.72;;;19.36;100.00
2681;BME280;1350;42.134;24.708;2022-09-03T02:45:19;99205.16;;;19.33;100.00
2681;BME280;1350;42.134;24.708;2022-09-03T02:47:53;99211.53;;;19.32;100.00
2681;BME280;1350;42.134;24.708;2022-09-03T02:50:21;99209.13;;;19.29;100.00
2681;BME280;1350;42.134;24.708;2022-09-03T02:52:48;99207.16;;;19.31;100.00
2681;BME280;1350;42.134;24.708;2022-09-03T02:55:15;99203.75;;;19.29;100.00
2681;BME280;1350;42.134;24.708;2022-09-03T02:57:42;99212.06;;;19.26;100.00
2681;BME280;1350;42.134;24.708;2022-09-03T03:00:09;99207.69;;;19.25;100.00
2681;BME280;1350;42.134;24.708;2022-09-03T03:02:36;99202.47;;;19.23;100.00
2681;BME280;1350;42.134;24.708;2022-09-03T03:05:05;99211.06;;;19.27;100.00
2681;BME280;1350;42.134;24.708;2022-09-03T03:07:36;99202.47;;;19.23;100.00
2681;BME280;1350;42.134;24.708;2022-09-03T03:10:05;99205.84;;;19.25;100.00
2681;BME280;1350;42.134;24.708;2022-09-03T03:12:32;99201.19;;;19.18;100.00
2681;BME280;1350;42.134;24.708;2022-09-03T03:14:59;99201.91;;;19.20;100.00
2681;BME280;1350;42.134;24.708;2022-09-03T03:17:26;99197.53;;;19.19;100.00
2681;BME280;1350;42.134;24.708;2022-09-03T03:19:53;99201.59;;;19.23;100.00
2681;BME280;1350;42.134;24.708;2022-09-03T03:22:21;99202.19;;;19.26;100.00
2681;BME280;1350;42.134;24.708;2022-09-03T03:24:48;99204.63;;;19.29;100.00
2681;BME280;1350;42.134;24.708;2022-09-03T03:27:14;99203.00;;;19.27;100.00
2681;BME280;1350;42.134;24.708;2022-09-03T03:29:42;99201.75;;;19.21;100.00
2681;BME280;1350;42.134;24.708;2022-09-03T03:32:09;99205.16;;;19.23;100.00
2681;BME280;1350;42.134;24.708;2022-09-03T03:34:36;99202.91;;;19.19;100.00
2681;BME280;1350;42.134;24.708;2022-09-03T03:37:04;99198.91;;;19.23;100.00
2681;BME280;1350;42.134;24.708;2022-09-03T03:39:32;99196.22;;;19.23;100.00
2681;BME280;1350;42.134;24.708;2022-09-03T03:41:59;99194.41;;;19.23;100.00
2681;BME280;1350;42.134;24.708;2022-09-03T03:44:26;99197.38;;;19.30;100.00
2681;BME280;1350;42.134;24.708;2022-09-03T03:46:54;99200.91;;;19.30;100.00
2681;BME280;1350;42.134;24.708;2022-09-03T03:49:20;99207.16;;;19.31;100.00
2681;BME280;1350;42.134;24.708;2022-09-03T03:51:47;99203.31;;;19.33;100.00
2681;BME280;1350;42.134;24.708;2022-09-03T03:54:14;99208.13;;;19.30;100.00
2681;BME280;1350;42.134;24.708;2022-09-03T03:56:42;99208.28;;;19.28;100.00
2681;BME280;1350;42.134;24.708;2022-09-03T03:59:09;99204.16;;;19.24;100.00
2681;BME280;1350;42.134;24.708;2022-09-03T04:01:35;99206.16;;;19.32;100.00
2681;BME280;1350;42.134;24.708;2022-09-03T04:04:02;99197.66;;;19.36;100.00
2681;BME280;1350;42.134;24.708;2022-09-03T04:06:30;99207.84;;;19.33;100.00
2681;BME280;1350;42.134;24.708;2022-09-03T04:08:56;99205.97;;;19.52;100.00
2681;BME280;1350;42.134;24.708;2022-09-03T04:11:24;99205.75;;;19.73;100.00
2681;BME280;1350;42.134;24.708;2022-09-03T04:13:52;99208.00;;;19.77;100.00
2681;BME280;1350;42.134;24.708;2022-09-03T04:16:21;99207.41;;;19.83;100.00
2681;BME280;1350;42.134;24.708;2022-09-03T04:18:48;99210.78;;;19.95;100.00
2681;BME280;1350;42.134;24.708;2022-09-03T04:21:17;99217.56;;;19.99;100.00
2681;BME280;1350;42.134;24.708;2022-09-03T04:23:45;99210.44;;;20.07;100.00
2681;BME280;1350;42.134;24.708;2022-09-03T04:26:14;99210.00;;;20.22;100.00
2681;BME280;1350;42.134;24.708;2022-09-03T04:28:41;99217.13;;;20.40;100.00
2681;BME280;1350;42.134;24.708;2022-09-03T04:31:12;99219.69;;;20.59;100.00
2681;BME280;1350;42.134;24.708;2022-09-03T04:33:40;99214.88;;;20.80;100.00
2681;BME280;1350;42.134;24.708;2022-09-03T04:36:09;99217.72;;;20.79;100.00
2681;BME280;1350;42.134;24.708;2022-09-03T04:38:38;99219.97;;;21.01;100.00
2681;BME280;1350;42.134;24.708;2022-09-03T04:41:06;99225.72;;;21.23;100.00
2681;BME280;1350;42.134;24.708;2022-09-03T04:43:33;99224.22;;;21.46;100.00
2681;BME280;1350;42.134;24.708;2022-09-03T04:46:01;99218.16;;;21.70;100.00
2681;BME280;1350;42.134;24.708;2022-09-03T04:48:31;99220.84;;;21.70;100.00
2681;BME280;1350;42.134;24.708;2022-09-03T04:51:01;99230.78;;;21.87;100.00
2681;BME280;1350;42.134;24.708;2022-09-03T04:53:29;99232.16;;;21.91;100.00
2681;BME280;1350;42.134;24.708;2022-09-03T04:55:56;99231.88;;;22.02;100.00
2681;BME280;1350;42.134;24.708;2022-09-03T04:58:23;99231.84;;;22.28;100.00
2681;BME280;1350;42.134;24.708;2022-09-03T05:00:50;99236.16;;;22.46;100.00
2681;BME280;1350;42.134;24.708;2022-09-03T05:03:16;99240.13;;;22.68;100.00
2681;BME280;1350;42.134;24.708;2022-09-03T05:05:52;99233.56;;;22.86;100.00
2681;BME280;1350;42.134;24.708;2022-09-03T05:08:19;99245.13;;;23.04;100.00
2681;BME280;1350;42.134;24.708;2022-09-03T05:10:46;99241.78;;;23.43;100.00
2681;BME280;1350;42.134;24.708;2022-09-03T05:13:12;99245.84;;;23.71;100.00
2681;BME280;1350;42.134;24.708;2022-09-03T05:15:39;99243.25;;;23.93;100.00
2681;BME280;1350;42.134;24.708;2022-09-03T05:18:10;99244.94;;;24.10;100.00
2681;BME280;1350;42.134;24.708;2022-09-03T05:20:37;99246.75;;;24.26;100.00
2681;BME280;1350;42.134;24.708;2022-09-03T05:23:05;99245.50;;;24.44;100.00
2681;BME280;1350;42.134;24.708;2022-09-03T05:25:32;99262.34;;;24.70;100.00
2681;BME280;1350;42.134;24.708;2022-09-03T05:27:59;99255.50;;;24.82;100.00
2681;BME280;1350;42.134;24.708;2022-09-03T05:30:27;99254.69;;;25.05;100.00
2681;BME280;1350;42.134;24.708;2022-09-03T05:32:54;99260.19;;;25.42;100.00
2681;BME280;1350;42.134;24.708;2022-09-03T05:35:22;99263.47;;;25.37;100.00
2681;BME280;1350;42.134;24.708;2022-09-03T05:37:48;99256.69;;;25.56;100.00
2681;BME280;1350;42.134;24.708;2022-09-03T05:40:16;99264.25;;;25.83;100.00
2681;BME280;1350;42.134;24.708;2022-09-03T05:42:43;99254.34;;;25.90;100.00
2681;BME280;1350;42.134;24.708;2022-09-03T05:45:10;99259.66;;;26.06;100.00
2681;BME280;1350;42.134;24.708;2022-09-03T05:47:41;99258.91;;;26.12;100.00
2681;BME280;1350;42.134;24.708;2022-09-03T05:50:08;99264.22;;;26.05;100.00
2681;BME280;1350;42.134;24.708;2022-09-03T05:52:35;99268.53;;;26.00;100.00
2681;BME280;1350;42.134;24.708;2022-09-03T05:55:02;99267.69;;;26.14;100.00
2681;BME280;1350;42.134;24.708;2022-09-03T05:57:30;99263.00;;;26.52;99.25
2681;BME280;1350;42.134;24.708;2022-09-03T05:59:58;99260.78;;;27.05;97.06
2681;BME280;1350;42.134;24.708;2022-09-03T06:02:24;99260.66;;;27.13;93.78
2681;BME280;1350;42.134;24.708;2022-09-03T06:04:51;99257.56;;;27.16;93.82
2681;BME280;1350;42.134;24.708;2022-09-03T06:07:18;99262.81;;;27.18;92.69
2681;BME280;1350;42.134;24.708;2022-09-03T06:09:45;99271.47;;;27.42;92.07
2681;BME280;1350;42.134;24.708;2022-09-03T06:12:12;99261.16;;;27.80;90.94
2681;BME280;1350;42.134;24.708;2022-09-03T06:14:40;99265.97;;;28.06;88.62
2681;BME280;1350;42.134;24.708;2022-09-03T06:17:07;99265.22;;;27.69;89.19
2681;BME280;1350;42.134;24.708;2022-09-03T06:19:35;99264.44;;;28.24;87.44
2681;BME280;1350;42.134;24.708;2022-09-03T06:22:02;99263.66;;;28.64;84.90
2681;BME280;1350;42.134;24.708;2022-09-03T06:24:29;99263.84;;;28.69;83.11
2681;BME280;1350;42.134;24.708;2022-09-03T06:26:56;99275.22;;;28.39;84.22
2681;BME280;1350;42.134;24.708;2022-09-03T06:29:22;99273.66;;;28.51;82.88
2681;BME280;1350;42.134;24.708;2022-09-03T06:31:51;99264.09;;;28.40;83.82
2681;BME280;1350;42.134;24.708;2022-09-03T06:34:17;99267.69;;;28.41;85.20
2681;BME280;1350;42.134;24.708;2022-09-03T06:36:47;99264.44;;;28.24;85.68
2681;BME280;1350;42.134;24.708;2022-09-03T06:39:13;99264.09;;;28.06;84.48
2681;BME280;1350;42.134;24.708;2022-09-03T06:41:40;99266.34;;;27.75;86.51
2681;BME280;1350;42.134;24.708;2022-09-03T06:44:07;99267.81;;;27.77;87.20
2681;BME280;1350;42.134;24.708;2022-09-03T06:46:38;99269.34;;;27.38;88.22
2681;BME280;1350;42.134;24.708;2022-09-03T06:49:08;99270.03;;;26.90;91.74
2681;BME280;1350;42.134;24.708;2022-09-03T06:51:35;99268.88;;;26.99;94.13
2681;BME280;1350;42.134;24.708;2022-09-03T06:54:04;99267.56;;;26.95;94.10
2681;BME280;1350;42.134;24.708;2022-09-03T06:56:32;99264.44;;;27.12;92.45
2681;BME280;1350;42.134;24.708;2022-09-03T06:59:05;99260.56;;;27.84;88.97
2681;BME280;1350;42.134;24.708;2022-09-03T07:01:33;99276.41;;;28.30;85.78
2681;BME280;1350;42.134;24.708;2022-09-03T07:04:01;99268.00;;;28.52;84.39
2681;BME280;1350;42.134;24.708;2022-09-03T07:06:31;99265.06;;;29.01;83.96
2681;BME280;1350;42.134;24.708;2022-09-03T07:09:01;99271.75;;;29.72;79.53
2681;BME280;1350;42.134;24.708;2022-09-03T07:11:29;99269.81;;;30.50;75.20
2681;BME280;1350;42.134;24.708;2022-09-03T07:13:58;99277.53;;;30.86;70.52
2681;BME280;1350;42.134;24.708;2022-09-03T07:16:26;99274.72;;;30.99;69.05
2681;BME280;1350;42.134;24.708;2022-09-03T07:18:53;99273.50;;;31.64;68.76
2681;BME280;1350;42.134;24.708;2022-09-03T07:21:22;99275.16;;;32.20;63.49
2681;BME280;1350;42.134;24.708;2022-09-03T07:23:52;99279.81;;;32.20;61.98
2681;BME280;1350;42.134;24.708;2022-09-03T07:26:21;99285.22;;;31.77;62.60
2681;BME280;1350;42.134;24.708;2022-09-03T07:28:49;99279.28;;;31.87;61.50
2681;BME280;1350;42.134;24.708;2022-09-03T07:31:17;99279.91;;;31.89;63.15
2681;BME280;1350;42.134;24.708;2022-09-03T07:33:45;99283.38;;;32.02;62.60
2681;BME280;1350;42.134;24.708;2022-09-03T07:36:14;99291.38;;;31.73;61.58
2681;BME280;1350;42.134;24.708;2022-09-03T07:38:42;99284.50;;;31.95;61.63
2681;BME280;1350;42.134;24.708;2022-09-03T07:41:12;99283.59;;;31.70;61.49
2681;BME280;1350;42.134;24.708;2022-09-03T07:43:40;99289.72;;;32.03;58.52
2681;BME280;1350;42.134;24.708;2022-09-03T07:46:08;99292.13;;;31.86;57.64
2681;BME280;1350;42.134;24.708;2022-09-03T07:48:37;99289.25;;;32.06;57.44
2681;BME280;1350;42.134;24.708;2022-09-03T07:51:04;99294.66;;;32.37;56.73
2681;BME280;1350;42.134;24.708;2022-09-03T07:53:32;99292.09;;;32.42;55.22
2681;BME280;1350;42.134;24.708;2022-09-03T07:56:03;99300.03;;;32.86;55.39
2681;BME280;1350;42.134;24.708;2022-09-03T07:58:32;99297.44;;;33.27;54.13
2681;BME280;1350;42.134;24.708;2022-09-03T08:01:04;99292.03;;;33.21;54.05
2681;BME280;1350;42.134;24.708;2022-09-03T08:03:32;99294.47;;;33.29;55.24
2681;BME280;1350;42.134;24.708;2022-09-03T08:06:00;99293.28;;;32.71;55.25
2681;BME280;1350;42.134;24.708;2022-09-03T08:08:27;99282.75;;;33.04;54.66
2681;BME280;1350;42.134;24.708;2022-09-03T08:10:55;99284.94;;;33.72;53.33
2681;BME280;1350;42.134;24.708;2022-09-03T08:13:23;99280.78;;;33.22;52.87
2681;BME280;1350;42.134;24.708;2022-09-03T08:15:54;99273.25;;;32.82;53.71
2681;BME280;1350;42.134;24.708;2022-09-03T08:18:23;99279.00;;;32.62;53.54
2681;BME280;1350;42.134;24.708;2022-09-03T08:20:51;99280.97;;;33.09;53.90
2681;BME280;1350;42.134;24.708;2022-09-03T08:23:18;99279.59;;;33.00;52.64
2681;BME280;1350;42.134;24.708;2022-09-03T08:25:45;99273.09;;;32.58;53.84
2681;BME280;1350;42.134;24.708;2022-09-03T08:28:11;99268.06;;;32.55;53.93
2681;BME280;1350;42.134;24.708;2022-09-03T08:30:38;99277.75;;;32.40;53.99
2681;BME280;1350;42.134;24.708;2022-09-03T08:33:06;99267.84;;;32.75;53.84
2681;BME280;1350;42.134;24.708;2022-09-03T08:35:33;99268.06;;;32.55;53.76
2681;BME280;1350;42.134;24.708;2022-09-03T08:38:01;99269.81;;;32.68;53.76
2681;BME280;1350;42.134;24.708;2022-09-03T08:40:32;99263.59;;;32.61;53.07
2681;BME280;1350;42.134;24.708;2022-09-03T08:43:08;99257.69;;;32.57;53.05
2681;BME280;1350;42.134;24.708;2022-09-03T08:45:41;99268.47;;;32.41;53.39
2681;BME280;1350;42.134;24.708;2022-09-03T08:48:13;99265.34;;;32.31;54.23
2681;BME280;1350;42.134;24.708;2022-09-03T08:50:44;99255.50;;;32.23;53.63
2681;BME280;1350;42.134;24.708;2022-09-03T08:53:18;99252.06;;;32.10;54.29
2681;BME280;1350;42.134;24.708;2022-09-03T08:55:50;99250.50;;;32.38;53.30
2681;BME280;1350;42.134;24.708;2022-09-03T08:58:18;99249.41;;;32.46;52.43
2681;BME280;1350;42.134;24.708;2022-09-03T09:00:49;99239.00;;;32.48;52.02
2681;BME280;1350;42.134;24.708;2022-09-03T09:03:39;99236.25;;;31.81;53.28
2681;BME280;1350;42.134;24.708;2022-09-03T09:06:16;99247.44;;;31.55;53.60
2681;BME280;1350;42.134;24.708;2022-09-03T09:08:56;99246.63;;;31.72;53.50
2681;BME280;1350;42.134;24.708;2022-09-03T09:11:35;99243.47;;;31.75;53.24
2681;BME280;1350;42.134;24.708;2022-09-03T09:14:11;99244.81;;;31.91;53.08
2681;BME280;1350;42.134;24.708;2022-09-03T09:16:46;99245.00;;;31.96;53.29
2681;BME280;1350;42.134;24.708;2022-09-03T09:19:26;99259.75;;;32.44;52.67
2681;BME280;1350;42.134;24.708;2022-09-03T09:22:00;99246.03;;;32.62;52.13
2681;BME280;1350;42.134;24.708;2022-09-03T09:24:34;99249.59;;;32.99;51.63
2681;BME280;1350;42.134;24.708;2022-09-03T09:27:04;99246.88;;;33.28;51.25
2681;BME280;1350;42.134;24.708;2022-09-03T09:29:34;99253.47;;;33.68;50.18
2681;BME280;1350;42.134;24.708;2022-09-03T09:32:01;99251.19;;;33.65;48.74
2681;BME280;1350;42.134;24.708;2022-09-03T09:34:34;99250.69;;;33.27;49.80
2681;BME280;1350;42.134;24.708;2022-09-03T09:37:05;99245.47;;;33.67;49.33
2681;BME280;1350;42.134;24.708;2022-09-03T09:39:34;99253.72;;;33.67;49.85
2681;BME280;1350;42.134;24.708;2022-09-03T09:42:04;99248.75;;;33.46;48.34
2681;BME280;1350;42.134;24.708;2022-09-03T09:44:34;99253.28;;;33.40;49.96
2681;BME280;1350;42.134;24.708;2022-09-03T09:47:03;99247.59;;;33.53;48.93
2681;BME280;1350;42.134;24.708;2022-09-03T09:49:34;99249.41;;;33.71;48.69
2681;BME280;1350;42.134;24.708;2022-09-03T09:52:05;99246.88;;;34.10;48.91
2681;BME280;1350;42.134;24.708;2022-09-03T09:54:33;99246.81;;;33.87;47.87
2681;BME280;1350;42.134;24.708;2022-09-03T09:57:01;99240.47;;;33.87;47.82
2681;BME280;1350;42.134;24.708;2022-09-03T09:59:29;99245.47;;;33.67;48.11
2681;BME280;1350;42.134;24.708;2022-09-03T10:02:11;99245.34;;;33.73;48.96
2681;BME280;1350;42.134;24.708;2022-09-03T10:04:40;99239.97;;;33.37;48.99
2681;BME280;1350;42.134;24.708;2022-09-03T10:07:22;99239.00;;;33.32;49.79
2681;BME280;1350;42.134;24.708;2022-09-03T10:10:04;99236.25;;;33.84;49.54
2681;BME280;1350;42.134;24.708;2022-09-03T10:12:35;99247.75;;;33.81;48.76
2681;BME280;1350;42.134;24.708;2022-09-03T10:15:21;99233.59;;;33.66;48.62
2681;BME280;1350;42.134;24.708;2022-09-03T10:17:55;99228.72;;;33.68;48.26
2681;BME280;1350;42.134;24.708;2022-09-03T10:20:30;99223.06;;;33.52;48.59
2681;BME280;1350;42.134;24.708;2022-09-03T10:23:08;99222.13;;;33.28;49.36
2681;BME280;1350;42.134;24.708;2022-09-03T10:25:41;99217.59;;;33.34;49.64
2681;BME280;1350;42.134;24.708;2022-09-03T10:28:12;99219.59;;;33.68;48.95
2681;BME280;1350;42.134;24.708;2022-09-03T10:30:52;99219.59;;;33.68;49.05
2681;BME280;1350;42.134;24.708;2022-09-03T10:33:25;99208.94;;;33.19;49.56
2681;BME280;1350;42.134;24.708;2022-09-03T10:36:05;99208.44;;;33.40;49.30
2681;BME280;1350;42.134;24.708;2022-09-03T10:38:35;99218.75;;;33.44;49.70
2681;BME280;1350;42.134;24.708;2022-09-03T10:41:17;99214.47;;;33.30;49.21
2681;BME280;1350;42.134;24.708;2022-09-03T10:44:02;99208.16;;;33.00;49.46
2681;BME280;1350;42.134;24.708;2022-09-03T10:46:39;99212.84;;;32.63;50.97
2681;BME280;1350;42.134;24.708;2022-09-03T10:49:19;99218.69;;;32.85;50.55
2681;BME280;1350;42.134;24.708;2022-09-03T10:52:00;99214.25;;;32.66;49.96
2681;BME280;1350;42.134;24.708;2022-09-03T10:54:41;99219.91;;;32.89;50.65
2681;BME280;1350;42.134;24.708;2022-09-03T10:57:19;99216.63;;;33.28;50.51
2681;BME280;1350;42.134;24.708;2022-09-03T11:00:01;99221.75;;;33.25;50.45
2681;BME280;1350;42.134;24.708;2022-09-03T11:05:22;99211.84;;;33.35;49.34
2681;BME280;1350;42.134;24.708;2022-09-03T11:08:00;99223.19;;;32.98;49.41
2681;BME280;1350;42.134;24.708;2022-09-03T11:10:29;99214.88;;;33.04;49.26
2681;BME280;1350;42.134;24.708;2022-09-03T11:13:02;99224.31;;;33.08;49.81
2681;BME280;1350;42.134;24.708;2022-09-03T11:15:34;99225.09;;;32.79;49.68
2681;BME280;1350;42.134;24.708;2022-09-03T11:18:13;99218.09;;;32.65;49.97
2681;BME280;1350;42.134;24.708;2022-09-03T11:20:43;99213.41;;;32.84;50.61
2681;BME280;1350;42.134;24.708;2022-09-03T11:23:11;99211.97;;;32.81;50.85
2681;BME280;1350;42.134;24.708;2022-09-03T11:25:42;99214.44;;;33.19;50.19
2681;BME280;1350;42.134;24.708;2022-09-03T11:28:19;99212.81;;;33.00;50.04
2681;BME280;1350;42.134;24.708;2022-09-03T11:31:03;99214.03;;;33.04;49.61
2681;BME280;1350;42.134;24.708;2022-09-03T11:33:33;99201.09;;;33.34;49.46
2681;BME280;1350;42.134;24.708;2022-09-03T11:36:05;99207.41;;;33.64;48.44
2681;BME280;1350;42.134;24.708;2022-09-03T11:38:34;99204.56;;;33.70;48.31
2681;BME280;1350;42.134;24.708;2022-09-03T11:41:11;99198.47;;;34.03;47.09
2681;BME280;1350;42.134;24.708;2022-09-03T11:43:40;99214.06;;;33.97;47.13
2681;BME280;1350;42.134;24.708;2022-09-03T11:46:10;99203.09;;;33.68;47.50
2681;BME280;1350;42.134;24.708;2022-09-03T11:48:42;99195.88;;;33.14;47.32
2681;BME280;1350;42.134;24.708;2022-09-03T11:51:19;99194.63;;;32.99;47.96
2681;BME280;1350;42.134;24.708;2022-09-03T11:53:55;99195.88;;;33.03;48.49
2681;BME280;1350;42.134;24.708;2022-09-03T11:56:22;99200.22;;;33.22;47.88
2681;BME280;1350;42.134;24.708;2022-09-03T11:59:02;99207.66;;;33.21;47.83
2681;BME280;1350;42.134;24.708;2022-09-03T12:01:30;99199.66;;;33.31;47.67
2681;BME280;1350;42.134;24.708;2022-09-03T12:04:00;99190.91;;;33.23;47.04
2681;BME280;1350;42.134;24.708;2022-09-03T12:06:48;99206.50;;;32.81;48.08
2681;BME280;1350;42.134;24.708;2022-09-03T12:09:53;99192.78;;;32.45;47.92
2681;BME280;1350;42.134;24.708;2022-09-03T12:12:44;99199.91;;;32.10;49.23
2681;BME280;1350;42.134;24.708;2022-09-03T12:15:23;99194.72;;;32.20;48.96
2681;BME280;1350;42.134;24.708;2022-09-03T12:17:56;99197.28;;;31.97;49.60
2681;BME280;1350;42.134;24.708;2022-09-03T12:20:42;99196.06;;;31.93;49.01
2681;BME280;1350;42.134;24.708;2022-09-03T12:23:09;99190.41;;;31.88;49.57
2681;BME280;1350;42.134;24.708;2022-09-03T12:25:43;99193.66;;;32.03;49.21
2681;BME280;1350;42.134;24.708;2022-09-03T12:28:16;99200.69;;;31.92;48.05
2681;BME280;1350;42.134;24.708;2022-09-03T12:30:44;99199.88;;;31.92;48.01
2681;BME280;1350;42.134;24.708;2022-09-03T12:33:12;99185.72;;;32.13;48.10
2681;BME280;1350;42.134;24.708;2022-09-03T12:35:42;99191.28;;;32.49;47.85
2681;BME280;1350;42.134;24.708;2022-09-03T12:38:12;99187.81;;;32.35;47.10
2681;BME280;1350;42.134;24.708;2022-09-03T12:40:43;99197.56;;;32.31;46.67
2681;BME280;1350;42.134;24.708;2022-09-03T12:43:13;99188.69;;;32.29;46.08
2681;BME280;1350;42.134;24.708;2022-09-03T12:45:42;99195.72;;;32.25;46.64
2681;BME280;1350;42.134;24.708;2022-09-03T12:48:13;99189.53;;;32.12;46.50
2681;BME280;1350;42.134;24.708;2022-09-03T12:50:42;99181.72;;;31.66;46.53
2681;BME280;1350;42.134;24.708;2022-09-03T12:53:11;99183.50;;;31.30;48.29
2681;BME280;1350;42.134;24.708;2022-09-03T12:55:42;99175.72;;;31.51;48.07
2681;BME280;1350;42.134;24.708;2022-09-03T12:58:14;99183.03;;;31.82;48.08
2681;BME280;1350;42.134;24.708;2022-09-03T13:00:45;99179.88;;;31.85;47.87
2681;BME280;1350;42.134;24.708;2022-09-03T13:03:18;99188.00;;;31.98;47.66
2681;BME280;1350;42.134;24.708;2022-09-03T13:05:50;99173.91;;;32.12;46.62
2681;BME280;1350;42.134;24.708;2022-09-03T13:08:21;99179.53;;;31.99;46.00
2681;BME280;1350;42.134;24.708;2022-09-03T13:10:53;99176.19;;;31.97;45.96
2681;BME280;1350;42.134;24.708;2022-09-03T13:13:23;99180.59;;;31.74;47.15
2681;BME280;1350;42.134;24.708;2022-09-03T13:16:10;99177.75;;;31.62;47.28
2681;BME280;1350;42.134;24.708;2022-09-03T13:18:44;99177.03;;;31.49;47.09
2681;BME280;1350;42.134;24.708;2022-09-03T13:21:17;99177.22;;;31.23;47.06
2681;BME280;1350;42.134;24.708;2022-09-03T13:24:18;99168.53;;;31.26;48.27
2681;BME280;1350;42.134;24.708;2022-09-03T13:27:10;99171.81;;;31.41;48.12
2681;BME280;1350;42.134;24.708;2022-09-03T13:29:56;99177.03;;;31.49;48.14